Datum Uhrzeit Temperatur Luft Windgeschw. Regen Regen (1h) Temp (1h) Luftdruck Windrichtung Taupunkt Sensor
2018-09-26 11:47:00 14.3 76.0 3.3 0.0 0.0 0.9 10.1 Kombisensor
2018-09-26 11:45:00 14.2 76.0 6.1 0.0 0.0 0.8 10.0 Kombisensor
2018-09-26 11:42:00 14.2 76.0 5.2 0.0 0.0 0.9 10.0 Kombisensor
2018-09-26 11:40:00 14.1 76.0 7.5 0.0 0.0 0.8 9.9 Kombisensor
2018-09-26 11:35:00 14.0 76.0 7.5 0.0 0.0 0.8 9.8 Kombisensor
2018-09-26 11:32:00 14.0 76.0 4.7 0.0 0.0 0.8 9.8 Kombisensor
2018-09-26 11:30:00 14.0 75.0 6.9 0.0 0.0 1.0 9.6 Kombisensor
2018-09-26 11:27:00 14.1 75.0 3.8 0.0 0.0 1.0 9.7 Kombisensor
2018-09-26 11:24:00 14.0 75.0 20.5 0.0 0.0 1.0 9.6 Kombisensor
2018-09-26 11:22:00 14.0 75.0 4.4 0.0 0.0 1.0 9.6 Kombisensor
2018-09-26 11:19:00 14.0 75.0 4.7 0.0 0.0 1.1 9.6 Kombisensor
2018-09-26 11:17:00 13.9 75.0 4.1 0.0 0.0 1.1 9.6 Kombisensor
2018-09-26 11:14:00 13.8 75.0 7.2 0.0 0.0 1.0 9.4 Kombisensor
2018-09-26 11:12:00 13.8 75.0 4.4 0.0 0.0 1.0 9.4 Kombisensor
2018-09-26 11:09:00 13.7 75.0 24.7 0.0 0.0 0.9 9.3 Kombisensor
2018-09-26 11:07:00 13.8 75.0 4.4 0.0 0.0 1.0 9.4 Kombisensor
2018-09-26 11:02:00 13.8 75.0 6.1 0.0 0.0 1.0 9.4 Kombisensor
2018-09-26 10:59:00 13.8 75.0 3.3 0.0 0.0 1.0 9.4 Kombisensor
2018-09-26 10:54:00 13.7 75.0 3.8 0.0 0.0 0.9 9.3 Kombisensor
2018-09-26 10:51:00 13.6 75.0 5.8 0.0 0.0 0.8 9.3 Kombisensor
2018-09-26 10:49:00 13.6 75.0 3.8 0.0 0.0 0.8 9.3 Kombisensor
2018-09-26 10:46:00 13.4 75.0 4.4 0.0 0.0 0.8 9.1 Kombisensor
2018-09-26 10:44:00 13.4 75.0 6.1 0.0 0.0 0.8 9.1 Kombisensor
2018-09-26 10:39:00 13.3 75.0 4.4 0.0 0.0 0.7 9.0 Kombisensor
2018-09-26 10:36:00 13.3 75.0 2.5 0.0 0.0 0.7 9.0 Kombisensor
2018-09-26 10:34:00 13.2 75.0 4.7 0.0 0.0 0.6 8.9 Kombisensor
2018-09-26 10:31:00 13.2 76.0 4.7 0.0 0.0 0.6 9.1 Kombisensor
2018-09-26 10:29:00 13.0 76.0 1.9 0.0 0.0 0.3 8.9 Kombisensor
2018-09-26 10:26:00 13.1 75.0 4.1 0.0 0.0 0.4 8.8 Kombisensor
2018-09-26 10:23:00 13.0 75.0 5.0 0.0 0.0 0.3 8.7 Kombisensor
2018-09-26 10:21:00 13.0 75.0 3.3 0.0 0.0 0.3 8.7 Kombisensor
2018-09-26 10:18:00 12.9 76.0 2.5 0.0 0.0 0.5 8.8 Kombisensor
2018-09-26 10:13:00 12.8 76.0 1.9 0.0 0.0 0.4 8.7 Kombisensor
2018-09-26 10:11:00 12.8 75.0 2.7 0.0 0.0 0.5 8.5 Kombisensor
2018-09-26 10:08:00 12.8 75.0 5.2 0.0 0.0 0.6 8.5 Kombisensor
2018-09-26 10:06:00 12.8 75.0 4.4 0.0 0.0 0.8 8.5 Kombisensor
2018-09-26 10:03:00 12.8 75.0 1.9 0.0 0.0 0.9 8.5 Kombisensor
2018-09-26 10:01:00 12.8 75.0 3.6 0.0 0.0 0.9 8.5 Kombisensor
2018-09-26 09:58:00 12.8 75.0 2.7 0.0 0.0 0.9 8.5 Kombisensor
2018-09-26 09:55:00 12.8 75.0 2.7 0.0 0.0 1.1 8.5 Kombisensor
2018-09-26 09:53:00 12.8 75.0 3.3 0.0 0.0 1.1 8.5 Kombisensor
2018-09-26 09:50:00 12.8 74.0 2.7 0.0 0.0 1.1 8.3 Kombisensor
2018-09-26 09:48:00 12.7 74.0 3.8 0.0 0.0 1.0 8.2 Kombisensor
2018-09-26 09:45:00 12.6 74.0 3.6 0.0 0.0 1.0 8.1 Kombisensor
2018-09-26 09:43:00 12.6 74.0 4.1 0.0 0.0 1.0 8.1 Kombisensor
2018-09-26 09:40:00 12.6 75.0 2.7 0.0 0.0 1.0 8.3 Kombisensor
2018-09-26 09:38:00 12.6 74.0 4.4 0.0 0.0 1.1 8.1 Kombisensor
2018-09-26 09:33:00 12.6 74.0 3.8 0.0 0.0 1.0 8.1 Kombisensor
2018-09-26 09:30:00 12.6 74.0 3.6 0.0 0.0 1.1 8.1 Kombisensor
2018-09-26 09:28:00 12.7 74.0 2.2 0.0 0.0 1.2 8.2 Kombisensor
2018-09-26 09:22:00 12.7 74.0 2.7 0.0 0.0 1.1 8.2 Kombisensor
2018-09-26 09:20:00 12.6 75.0 1.9 0.0 0.0 1.0 8.3 Kombisensor
2018-09-26 09:15:00 12.4 74.0 3.6 0.0 0.0 1.0 7.9 Kombisensor
2018-09-26 09:12:00 12.4 75.0 3.8 0.0 0.0 1.0 8.1 Kombisensor
2018-09-26 09:10:00 12.3 75.0 3.3 0.0 0.0 0.8 8.0 Kombisensor
2018-09-26 09:07:00 12.2 75.0 3.8 0.0 0.0 0.8 7.9 Kombisensor
2018-09-26 09:05:00 12.0 75.0 2.2 0.0 0.0 0.6 7.7 Kombisensor
2018-09-26 09:02:00 11.9 75.0 2.2 0.0 0.0 0.4 7.6 Kombisensor
2018-09-26 09:00:00 11.9 75.0 2.5 0.0 0.0 0.4 7.6 Kombisensor
2018-09-26 08:57:00 11.9 75.0 3.0 0.0 0.0 0.4 7.6 Kombisensor
2018-09-26 08:52:00 11.7 75.0 1.6 0.0 0.0 0.2 7.4 Kombisensor
2018-09-26 08:49:00 11.7 75.0 3.6 0.0 0.0 0.2 7.4 Kombisensor
2018-09-26 08:47:00 11.6 75.0 3.3 0.0 0.0 0.1 7.3 Kombisensor
2018-09-26 08:44:00 11.6 75.0 2.2 0.0 0.0 0.1 7.3 Kombisensor
2018-09-26 08:42:00 11.6 75.0 3.0 0.0 0.0 0.0 7.3 Kombisensor
2018-09-26 08:39:00 11.6 75.0 2.7 0.0 0.0 0.0 7.3 Kombisensor
2018-09-26 08:37:00 11.5 75.0 1.6 0.0 0.0 -0.1 7.2 Kombisensor
2018-09-26 08:34:00 11.6 75.0 3.3 0.0 0.0 0.1 7.3 Kombisensor
2018-09-26 08:32:00 11.6 75.0 3.8 0.0 0.0 0.1 7.3 Kombisensor
2018-09-26 08:29:00 11.5 75.0 2.2 0.0 0.0 -0.1 7.2 Kombisensor
2018-09-26 08:27:00 11.5 75.0 1.9 0.0 0.0 -0.1 7.2 Kombisensor
2018-09-26 08:24:00 11.5 75.0 1.6 0.0 0.0 -0.1 7.2 Kombisensor
2018-09-26 08:21:00 11.6 75.0 3.3 0.0 0.0 0.1 7.3 Kombisensor
2018-09-26 08:19:00 11.5 75.0 4.7 0.0 0.0 0.0 7.2 Kombisensor
2018-09-26 08:16:00 11.4 75.0 13.8 0.0 0.0 -0.1 7.1 Kombisensor
2018-09-26 08:11:00 11.4 75.0 1.9 0.0 0.0 -0.1 7.1 Kombisensor
2018-09-26 08:09:00 11.5 75.0 2.5 0.0 0.0 0.0 7.2 Kombisensor
2018-09-26 08:06:00 11.4 75.0 1.3 0.0 0.0 -0.1 7.1 Kombisensor
2018-09-26 08:04:00 11.4 75.0 1.9 0.0 0.0 0.0 7.1 Kombisensor
2018-09-26 08:01:00 11.5 75.0 1.1 0.0 0.0 0.1 7.2 Kombisensor
2018-09-26 07:59:00 11.5 75.0 1.3 0.0 0.0 0.1 7.2 Kombisensor
2018-09-26 07:56:00 11.5 75.0 2.2 0.0 0.0 0.1 7.2 Kombisensor
2018-09-26 07:53:00 11.5 75.0 2.2 0.0 0.0 0.2 7.2 Kombisensor
2018-09-26 07:51:00 11.5 74.0 1.6 0.0 0.0 0.2 7.0 Kombisensor
2018-09-26 07:48:00 11.5 74.0 1.9 0.0 0.0 0.2 7.0 Kombisensor
2018-09-26 07:46:00 11.5 74.0 1.9 0.0 0.0 0.2 7.0 Kombisensor
2018-09-26 07:43:00 11.5 74.0 1.3 0.0 0.0 0.1 7.0 Kombisensor
2018-09-26 07:41:00 11.6 74.0 1.3 0.0 0.0 0.2 7.1 Kombisensor
2018-09-26 07:38:00 11.6 74.0 2.5 0.0 0.0 0.2 7.1 Kombisensor
2018-09-26 07:36:00 11.6 74.0 1.3 0.0 0.0 0.2 7.1 Kombisensor
2018-09-26 07:31:00 11.5 74.0 0.5 0.0 0.0 0.1 7.0 Kombisensor
2018-09-26 07:28:00 11.6 74.0 2.5 0.0 0.0 0.2 7.1 Kombisensor
2018-09-26 07:26:00 11.6 74.0 1.9 0.0 0.0 0.2 7.1 Kombisensor
2018-09-26 07:23:00 11.6 74.0 3.6 0.0 0.0 0.2 7.1 Kombisensor
2018-09-26 07:20:00 11.5 74.0 1.3 0.0 0.0 0.1 7.0 Kombisensor
2018-09-26 07:18:00 11.6 74.0 2.7 0.0 0.0 0.2 7.1 Kombisensor
2018-09-26 07:15:00 11.5 74.0 2.7 0.0 0.0 0.2 7.0 Kombisensor
2018-09-26 07:13:00 11.5 75.0 1.3 0.0 0.0 0.2 7.2 Kombisensor
2018-09-26 07:10:00 11.5 75.0 0.5 0.0 0.0 0.2 7.2 Kombisensor
2018-09-26 07:08:00 11.5 75.0 1.3 0.0 0.0 0.2 7.2 Kombisensor
2018-09-26 07:05:00 11.5 75.0 1.1 0.0 0.0 0.2 7.2 Kombisensor
2018-09-26 07:03:00 11.4 75.0 1.1 0.0 0.0 0.1 7.1 Kombisensor
2018-09-26 06:58:00 11.4 75.0 0.5 0.0 0.0 0.0 7.1 Kombisensor
2018-09-26 06:55:00 11.4 75.0 0.2 0.0 0.0 0.0 7.1 Kombisensor
2018-09-26 06:47:00 11.3 75.0 0.8 0.0 0.0 0.0 7.0 Kombisensor
2018-09-26 06:45:00 11.3 75.0 0.2 0.0 0.0 0.0 7.0 Kombisensor
2018-09-26 06:42:00 11.4 75.0 0.5 0.0 0.0 0.0 7.1 Kombisensor
2018-09-26 06:32:00 11.4 75.0 0.5 0.0 0.0 0.1 7.1 Kombisensor
2018-09-26 06:30:00 11.4 74.0 0.5 0.0 0.0 0.1 6.9 Kombisensor
2018-09-26 06:27:00 11.4 75.0 1.1 0.0 0.0 0.2 7.1 Kombisensor
2018-09-26 06:19:00 11.4 75.0 0.5 0.0 0.0 0.1 7.1 Kombisensor
2018-09-26 06:17:00 11.4 75.0 1.6 0.0 0.0 0.1 7.1 Kombisensor
2018-09-26 06:14:00 11.3 75.0 0.5 0.0 0.0 0.0 7.0 Kombisensor
2018-09-26 06:09:00 11.3 75.0 0.2 0.0 0.0 0.1 7.0 Kombisensor
2018-09-26 06:04:00 11.3 75.0 0.8 0.0 0.0 0.1 7.0 Kombisensor
2018-09-26 06:02:00 11.3 75.0 0.2 0.0 0.0 0.1 7.0 Kombisensor
2018-09-26 05:59:00 11.4 75.0 1.1 0.0 0.0 0.1 7.1 Kombisensor
2018-09-26 05:57:00 11.4 75.0 0.2 0.0 0.0 0.1 7.1 Kombisensor
2018-09-26 05:54:00 11.4 75.0 0.8 0.0 0.0 0.1 7.1 Kombisensor
2018-09-26 05:51:00 11.4 75.0 1.1 0.0 0.0 0.2 7.1 Kombisensor
2018-09-26 05:49:00 11.4 75.0 1.3 0.0 0.0 0.2 7.1 Kombisensor
2018-09-26 05:46:00 11.3 75.0 0.2 0.0 0.0 0.1 7.0 Kombisensor
2018-09-26 05:44:00 11.4 75.0 0.2 0.0 0.0 0.2 7.1 Kombisensor
2018-09-26 05:41:00 11.4 75.0 1.3 0.0 0.0 0.2 7.1 Kombisensor
2018-09-26 05:39:00 11.3 75.0 1.6 0.0 0.0 0.1 7.0 Kombisensor
2018-09-26 05:36:00 11.3 75.0 0.2 0.0 0.0 0.1 7.0 Kombisensor
2018-09-26 05:34:00 11.3 75.0 0.5 0.0 0.0 0.1 7.0 Kombisensor
2018-09-26 05:29:00 11.3 76.0 0.5 0.0 0.0 0.1 7.2 Kombisensor
2018-09-26 05:26:00 11.2 76.0 0.2 0.0 0.0 -0.1 7.1 Kombisensor
2018-09-26 05:23:00 11.2 76.0 0.0 0.0 0.0 -0.1 7.1 Kombisensor
2018-09-26 05:18:00 11.3 76.0 0.2 0.0 0.0 0.1 7.2 Kombisensor
2018-09-26 05:16:00 11.3 76.0 0.5 0.0 0.0 0.1 7.2 Kombisensor
2018-09-26 05:13:00 11.3 76.0 0.2 0.0 0.0 0.1 7.2 Kombisensor
2018-09-26 05:11:00 11.3 76.0 0.0 0.0 0.0 0.4 7.2 Kombisensor
2018-09-26 05:08:00 11.2 76.0 0.0 0.0 0.0 0.3 7.1 Kombisensor
2018-09-26 05:06:00 11.2 76.0 0.5 0.0 0.0 0.3 7.1 Kombisensor
2018-09-26 05:01:00 11.2 76.0 0.0 0.0 0.0 0.5 7.1 Kombisensor
2018-09-26 04:58:00 11.3 76.0 0.2 0.0 0.0 0.6 7.2 Kombisensor
2018-09-26 04:56:00 11.3 76.0 0.0 0.0 0.0 0.7 7.2 Kombisensor
2018-09-26 04:53:00 11.3 76.0 0.2 0.0 0.0 0.6 7.2 Kombisensor
2018-09-26 04:45:00 11.2 76.0 0.2 0.0 0.0 0.5 7.1 Kombisensor
2018-09-26 04:38:00 11.2 76.0 0.0 0.0 0.0 0.5 7.1 Kombisensor
2018-09-26 04:35:00 11.2 76.0 0.2 0.0 0.0 0.5 7.1 Kombisensor
2018-09-26 04:28:00 11.2 76.0 0.0 0.0 0.0 0.4 7.1 Kombisensor
2018-09-26 04:25:00 11.3 76.0 0.0 0.0 0.0 0.5 7.2 Kombisensor
2018-09-26 04:23:00 11.3 76.0 0.5 0.0 0.0 0.6 7.2 Kombisensor
2018-09-26 04:20:00 11.2 76.0 0.2 0.0 0.0 0.5 7.1 Kombisensor
2018-09-26 04:15:00 11.2 77.0 0.0 0.0 0.0 0.4 7.3 Kombisensor
2018-09-26 04:12:00 11.2 77.0 0.5 0.0 0.0 0.5 7.3 Kombisensor
2018-09-26 04:05:00 10.9 79.0 0.0 0.0 0.0 0.3 7.4 Kombisensor
2018-09-26 03:57:00 10.7 81.0 0.0 0.0 0.0 0.2 7.6 Kombisensor
2018-09-26 03:55:00 10.6 81.0 0.0 0.0 0.0 0.1 7.5 Kombisensor
2018-09-26 03:44:00 10.7 81.0 0.0 0.0 0.0 0.3 7.6 Kombisensor
2018-09-26 03:39:00 10.8 81.0 0.0 0.0 0.0 0.4 7.7 Kombisensor
2018-09-26 03:34:00 10.7 81.0 0.0 0.0 0.0 0.3 7.6 Kombisensor
2018-09-26 03:32:00 10.8 81.0 0.0 0.0 0.0 0.4 7.7 Kombisensor
2018-09-26 03:24:00 10.8 82.0 0.0 0.0 0.0 0.5 7.8 Kombisensor
2018-09-26 03:21:00 10.7 82.0 0.0 0.0 0.0 0.4 7.8 Kombisensor
2018-09-26 03:19:00 10.8 82.0 0.0 0.0 0.0 0.5 7.8 Kombisensor
2018-09-26 03:16:00 10.8 82.0 0.2 0.0 0.0 0.6 7.8 Kombisensor
2018-09-26 03:09:00 10.7 82.0 0.0 0.0 0.0 0.7 7.8 Kombisensor
2018-09-26 03:06:00 10.6 82.0 0.0 0.0 0.0 0.6 7.7 Kombisensor
2018-09-26 03:04:00 10.6 83.0 0.0 0.0 0.0 0.6 7.8 Kombisensor
2018-09-26 02:51:00 10.5 83.0 0.0 0.0 0.0 0.5 7.7 Kombisensor
2018-09-26 02:28:00 10.4 83.0 0.0 0.0 0.0 0.7 7.6 Kombisensor
2018-09-26 02:20:00 10.3 83.0 0.0 0.0 0.0 0.5 7.5 Kombisensor
2018-09-26 02:15:00 10.2 83.0 0.0 0.0 0.0 0.4 7.5 Kombisensor
2018-09-26 02:10:00 10.1 83.0 0.0 0.0 0.0 0.3 7.3 Kombisensor
2018-09-26 01:53:00 10.0 83.0 0.0 0.0 0.0 0.2 7.2 Kombisensor
2018-09-26 01:50:00 10.0 82.0 0.0 0.0 0.0 0.2 7.1 Kombisensor
2018-09-26 01:37:00 9.9 82.0 0.0 0.0 0.0 0.3 7.0 Kombisensor
2018-09-26 01:30:00 9.8 82.0 0.0 0.0 0.0 0.3 6.9 Kombisensor
2018-09-26 01:25:00 9.7 82.0 0.0 0.0 0.0 0.3 6.8 Kombisensor
2018-09-26 01:04:00 9.8 82.0 0.0 0.0 0.0 4.2 6.9 Kombisensor
2018-09-26 00:52:00 9.8 83.0 0.0 0.0 0.0 0.0 7.0 Kombisensor
2018-09-26 00:49:00 9.8 84.0 0.0 0.0 0.0 0.1 7.2 Kombisensor
2018-09-26 00:41:00 9.7 84.0 0.0 0.0 0.0 0.1 7.1 Kombisensor
2018-09-26 00:36:00 9.6 85.0 0.0 0.0 0.0 0.1 7.2 Kombisensor
2018-09-26 00:31:00 9.5 85.0 0.0 0.0 0.0 0.0 7.1 Kombisensor
2018-09-26 00:29:00 9.5 86.0 0.0 0.0 0.0 0.1 7.3 Kombisensor
2018-09-26 00:24:00 9.4 86.0 0.0 0.0 0.0 0.1 7.2 Kombisensor
2018-09-26 00:16:00 9.3 86.0 0.0 0.0 0.0 0.1 7.1 Kombisensor
2018-09-26 00:11:00 9.2 85.0 0.0 0.0 0.0 0.5 6.8 Kombisensor